createdAt,value
2018-07-08T00:01:00.555Z,70.32
2018-07-08T00:03:30.435Z,73.07
2018-07-08T00:06:00.266Z,73.84
2018-07-08T00:08:30.191Z,72.95
2018-07-08T00:11:00.527Z,70.80
2018-07-08T00:13:30.334Z,69.01
2018-07-08T00:16:00.085Z,68.64
2018-07-08T00:18:29.878Z,68.14
2018-07-08T00:20:59.719Z,68.10
2018-07-08T00:23:29.559Z,68.20
2018-07-08T00:25:59.330Z,67.51
2018-07-08T00:28:29.192Z,70.27
2018-07-08T00:30:58.909Z,70.64
2018-07-08T00:33:28.666Z,71.08
2018-07-08T00:35:58.417Z,71.64
2018-07-08T00:38:28.030Z,70.32
2018-07-08T00:40:57.778Z,68.29
2018-07-08T00:43:27.668Z,67.74
2018-07-08T00:45:57.473Z,67.93
2018-07-08T00:48:27.250Z,69.52
2018-07-08T00:50:57.017Z,69.17
2018-07-08T00:53:26.701Z,69.09
2018-07-08T00:55:56.452Z,68.58
2018-07-08T00:58:26.268Z,68.34
2018-07-08T01:00:56.079Z,67.58
2018-07-08T01:03:25.800Z,68.66
2018-07-08T01:05:55.970Z,69.11
2018-07-08T01:08:25.757Z,68.45
2018-07-08T01:10:55.515Z,68.05
2018-07-08T01:13:25.465Z,68.53
2018-07-08T01:15:55.244Z,67.65
2018-07-08T01:18:24.940Z,67.31
2018-07-08T01:20:54.721Z,67.42
2018-07-08T01:23:24.396Z,68.41
2018-07-08T01:26:17.089Z,68.37
2018-07-08T01:28:46.780Z,68.24
2018-07-08T01:31:16.630Z,68.23
2018-07-08T01:33:47.370Z,67.87
2018-07-08T01:36:17.109Z,72.15
2018-07-08T01:38:46.921Z,76.08
2018-07-08T01:41:16.920Z,77.23
2018-07-08T01:43:47.115Z,77.43
2018-07-08T01:46:16.871Z,77.29
2018-07-08T01:48:46.801Z,77.82
2018-07-08T01:51:16.630Z,78.81
2018-07-08T01:53:46.503Z,79.36
2018-07-08T01:56:16.391Z,78.51
2018-07-08T01:58:46.246Z,78.54
2018-07-08T02:01:16.152Z,76.34
2018-07-08T02:03:45.975Z,77.94
2018-07-08T02:06:16.065Z,77.69
2018-07-08T02:08:46.370Z,76.84
2018-07-08T02:11:16.213Z,76.11
2018-07-08T02:13:46.078Z,73.72
2018-07-08T02:16:15.916Z,72.89
2018-07-08T02:18:45.857Z,71.91
2018-07-08T02:21:15.676Z,72.06
2018-07-08T02:23:46.043Z,71.00
2018-07-08T02:26:15.905Z,73.58
2018-07-08T02:28:45.833Z,73.44
2018-07-08T02:31:15.638Z,71.55
2018-07-08T02:33:45.290Z,72.43
2018-07-08T02:36:15.063Z,71.90
2018-07-08T02:38:44.895Z,72.05
2018-07-08T02:41:14.804Z,74.70
2018-07-08T02:43:44.828Z,74.15
2018-07-08T02:46:14.955Z,73.18
2018-07-08T02:48:44.821Z,72.86
2018-07-08T02:51:14.629Z,72.90
2018-07-08T02:53:44.451Z,72.25
2018-07-08T02:56:14.185Z,71.56
2018-07-08T02:58:43.918Z,72.87
2018-07-08T03:01:13.666Z,74.63
2018-07-08T03:03:43.570Z,73.59
2018-07-08T03:06:13.340Z,71.51
2018-07-08T03:08:43.356Z,71.77
2018-07-08T03:11:13.115Z,72.13
2018-07-08T03:13:42.875Z,72.33
2018-07-08T03:16:12.683Z,73.13
2018-07-08T03:18:42.527Z,72.31
2018-07-08T03:21:12.242Z,71.52
2018-07-08T03:23:41.874Z,71.62
2018-07-08T03:26:11.642Z,71.36
2018-07-08T03:28:41.352Z,72.19
2018-07-08T03:31:11.299Z,70.76
2018-07-08T03:33:41.087Z,71.16
2018-07-08T03:36:10.893Z,72.02
2018-07-08T03:38:40.687Z,71.46
2018-07-08T03:41:10.463Z,71.05
2018-07-08T03:43:40.338Z,69.56
2018-07-08T03:46:10.150Z,69.34
2018-07-08T03:48:40.361Z,68.49
2018-07-08T03:51:10.042Z,70.57
2018-07-08T03:53:39.931Z,70.47
2018-07-08T03:56:09.693Z,71.78
2018-07-08T03:58:39.497Z,72.37
2018-07-08T04:01:09.141Z,71.60
2018-07-08T04:03:38.886Z,70.06
2018-07-08T04:06:08.757Z,68.89
2018-07-08T04:08:38.691Z,68.29
2018-07-08T04:11:08.894Z,67.77
2018-07-08T04:13:38.701Z,71.25
2018-07-08T04:16:10.079Z,72.42
2018-07-08T04:18:39.782Z,70.14
2018-07-08T04:21:09.687Z,68.81
2018-07-08T04:23:39.931Z,68.95
2018-07-08T04:26:09.626Z,68.50
2018-07-08T04:28:39.413Z,67.02
2018-07-08T04:31:09.241Z,69.01
2018-07-08T04:33:38.913Z,68.76
2018-07-08T04:36:08.606Z,68.52
2018-07-08T04:38:38.442Z,67.03
2018-07-08T04:41:08.219Z,66.95
2018-07-08T04:43:38.055Z,65.84
2018-07-08T04:46:08.034Z,66.52
2018-07-08T04:48:37.882Z,65.77
2018-07-08T04:51:07.677Z,65.50
2018-07-08T04:53:37.435Z,65.10
2018-07-08T04:57:31.469Z,64.81
2018-07-08T05:00:01.464Z,67.81
2018-07-08T05:02:31.319Z,70.83
2018-07-08T05:05:01.230Z,70.67
2018-07-08T05:07:30.995Z,70.50
2018-07-08T05:10:00.685Z,72.52
2018-07-08T05:12:30.613Z,70.71
2018-07-08T05:15:00.431Z,69.78
2018-07-08T05:17:30.145Z,69.97
2018-07-08T05:19:59.950Z,68.25
2018-07-08T05:22:29.749Z,68.13
2018-07-08T05:24:59.596Z,69.70
2018-07-08T05:27:29.502Z,70.12
2018-07-08T05:29:59.369Z,69.26
2018-07-08T05:32:29.220Z,69.16
2018-07-08T05:34:59.299Z,68.26
2018-07-08T05:37:29.003Z,69.54
2018-07-08T05:39:58.752Z,74.63
2018-07-08T05:42:28.498Z,68.00
2018-07-08T05:44:58.185Z,67.12
2018-07-08T05:47:27.878Z,66.55
2018-07-08T05:49:57.621Z,66.42
2018-07-08T05:52:27.422Z,65.27
2018-07-08T05:54:57.209Z,67.23
2018-07-08T05:57:26.950Z,67.38
2018-07-08T05:59:56.753Z,66.25
2018-07-08T06:02:26.599Z,65.98
2018-07-08T06:04:56.383Z,63.24
2018-07-08T06:07:26.142Z,62.50
2018-07-08T06:09:55.964Z,60.30
2018-07-08T06:12:25.619Z,60.70
2018-07-08T06:14:55.700Z,60.86
2018-07-08T06:17:25.434Z,61.61
2018-07-08T06:19:55.232Z,60.51
2018-07-08T06:22:25.009Z,59.04
2018-07-08T06:24:54.735Z,60.13
2018-07-08T06:27:24.493Z,58.27
2018-07-08T06:29:54.301Z,56.46
2018-07-08T06:32:24.012Z,59.78
2018-07-08T06:34:53.860Z,59.23
2018-07-08T06:37:23.659Z,54.74
2018-07-08T06:39:53.591Z,55.21
2018-07-08T06:42:23.421Z,55.41
2018-07-08T06:44:53.254Z,53.79
2018-07-08T06:47:22.982Z,55.23
2018-07-08T06:49:52.643Z,56.57
2018-07-08T06:52:22.432Z,56.26
2018-07-08T06:54:52.799Z,55.07
2018-07-08T06:57:22.663Z,53.12
2018-07-08T06:59:52.586Z,54.24
2018-07-08T07:02:22.681Z,55.43
2018-07-08T07:04:52.553Z,56.39
2018-07-08T07:07:22.385Z,53.14
2018-07-08T07:09:52.192Z,51.98
2018-07-08T07:12:21.985Z,49.96
2018-07-08T07:14:51.655Z,49.13
2018-07-08T07:17:21.799Z,49.79
2018-07-08T07:19:51.539Z,50.36
2018-07-08T07:22:21.544Z,47.25
2018-07-08T07:24:51.489Z,49.63
2018-07-08T07:27:21.458Z,48.98
2018-07-08T07:29:51.867Z,47.65
2018-07-08T07:32:22.966Z,47.78
2018-07-08T07:34:52.733Z,50.24
2018-07-08T07:37:22.566Z,49.30
2018-07-08T07:39:52.367Z,47.44
2018-07-08T07:42:23.009Z,49.74
2018-07-08T07:46:17.005Z,50.89
2018-07-08T07:48:46.766Z,51.37
2018-07-08T07:51:16.636Z,49.80
2018-07-08T07:53:46.320Z,49.66
2018-07-08T07:56:16.163Z,47.78
2018-07-08T07:58:45.987Z,49.25
2018-07-08T08:01:15.924Z,47.14
2018-07-08T08:03:45.725Z,44.94
2018-07-08T08:06:15.417Z,45.44
2018-07-08T08:08:45.115Z,46.26
2018-07-08T08:11:14.885Z,42.24
2018-07-08T08:14:07.812Z,43.96
2018-07-08T08:16:37.703Z,45.80
2018-07-08T08:19:07.691Z,44.81
2018-07-08T08:21:44.690Z,47.70
2018-07-08T08:24:14.682Z,46.29
2018-07-08T08:26:44.543Z,48.50
2018-07-08T08:29:14.564Z,48.64
2018-07-08T08:31:45.616Z,48.42
2018-07-08T08:35:20.242Z,49.23
2018-07-08T08:37:58.222Z,49.70
2018-07-08T08:40:29.205Z,48.82
2018-07-08T08:42:59.122Z,48.56
2018-07-08T08:45:30.107Z,49.84
2018-07-08T08:47:59.797Z,50.39
2018-07-08T08:50:30.222Z,49.02
2018-07-08T08:52:59.942Z,48.23
2018-07-08T08:55:29.684Z,48.52
2018-07-08T08:57:59.419Z,50.42
2018-07-08T09:00:29.325Z,50.53
2018-07-08T09:02:59.024Z,51.40
2018-07-08T09:05:28.850Z,51.50
2018-07-08T09:07:58.660Z,51.39
2018-07-08T09:10:28.610Z,50.25
2018-07-08T09:12:58.366Z,50.38
2018-07-08T09:15:28.082Z,50.28
2018-07-08T09:17:57.794Z,51.36
2018-07-08T09:20:27.773Z,49.29
2018-07-08T09:22:57.600Z,49.63
2018-07-08T09:25:27.281Z,49.17
2018-07-08T09:27:57.111Z,43.42
2018-07-08T09:30:26.813Z,43.34
2018-07-08T09:32:56.523Z,44.59
2018-07-08T09:35:26.212Z,44.63
2018-07-08T09:37:55.953Z,42.68
2018-07-08T09:40:25.941Z,43.85
2018-07-08T09:42:55.743Z,41.60
2018-07-08T09:45:25.513Z,42.96
2018-07-08T09:47:55.330Z,43.94
2018-07-08T09:50:25.102Z,43.14
2018-07-08T09:52:54.840Z,44.12
2018-07-08T09:55:24.529Z,43.05
2018-07-08T09:57:54.414Z,46.26
2018-07-08T10:00:24.203Z,45.26
2018-07-08T10:02:53.940Z,46.58
2018-07-08T10:05:23.471Z,46.81
2018-07-08T10:07:53.284Z,43.85
2018-07-08T10:10:22.943Z,42.25
2018-07-08T10:12:52.684Z,42.65
2018-07-08T10:15:22.438Z,42.53
2018-07-08T10:17:52.302Z,43.95
2018-07-08T10:20:22.151Z,43.50
2018-07-08T10:22:52.234Z,42.86
2018-07-08T10:25:22.809Z,42.37
2018-07-08T10:28:24.540Z,42.35
2018-07-08T10:30:54.865Z,41.43
2018-07-08T10:33:24.547Z,42.01
2018-07-08T10:36:01.652Z,39.94
2018-07-08T10:38:32.364Z,40.66
2018-07-08T10:41:02.014Z,40.06
2018-07-08T10:43:31.789Z,39.30
2018-07-08T10:46:01.541Z,37.85
2018-07-08T10:48:31.556Z,39.27
2018-07-08T10:51:01.409Z,36.68
2018-07-08T10:53:31.196Z,35.77
2018-07-08T10:56:01.162Z,35.61
2018-07-08T10:58:32.358Z,35.15
2018-07-08T11:01:02.514Z,35.71
2018-07-08T11:03:32.414Z,35.70
2018-07-08T11:06:02.209Z,36.98
2018-07-08T11:08:32.058Z,38.86
2018-07-08T11:11:01.964Z,42.09
2018-07-08T11:13:31.685Z,42.25
2018-07-08T11:16:01.430Z,42.16
2018-07-08T11:18:31.194Z,43.63
2018-07-08T11:21:01.292Z,42.03
2018-07-08T11:23:31.437Z,41.38
2018-07-08T11:26:01.322Z,42.34
2018-07-08T11:28:31.208Z,45.81
2018-07-08T11:31:01.053Z,48.67
2018-07-08T11:33:30.962Z,57.92
2018-07-08T11:36:00.833Z,56.70
2018-07-08T11:38:30.681Z,61.27
2018-07-08T11:41:00.635Z,65.63
2018-07-08T11:43:30.467Z,67.98
2018-07-08T11:46:00.321Z,69.18
2018-07-08T11:48:30.214Z,71.63
2018-07-08T11:51:00.084Z,71.58
2018-07-08T11:53:29.942Z,70.21
2018-07-08T11:55:59.797Z,70.78
2018-07-08T11:58:29.593Z,72.07
2018-07-08T12:00:59.505Z,69.37
2018-07-08T12:03:29.349Z,69.33
2018-07-08T12:05:59.206Z,67.67
2018-07-08T12:08:29.006Z,64.42
2018-07-08T12:10:58.789Z,63.34
2018-07-08T12:13:28.488Z,66.44
2018-07-08T12:15:58.131Z,64.26
2018-07-08T12:18:27.851Z,65.59
2018-07-08T12:20:57.624Z,65.17
2018-07-08T12:23:27.341Z,62.50
2018-07-08T12:25:57.430Z,61.75
2018-07-08T12:28:27.318Z,60.78
2018-07-08T12:30:57.078Z,60.55
2018-07-08T12:33:26.798Z,59.65
2018-07-08T12:36:01.330Z,58.31
2018-07-08T12:38:31.654Z,57.56
2018-07-08T12:41:01.391Z,57.26
2018-07-08T12:43:31.390Z,56.05
2018-07-08T12:46:01.223Z,57.78
2018-07-08T12:48:30.997Z,59.55
2018-07-08T12:51:00.830Z,54.06
2018-07-08T12:53:30.961Z,51.49
2018-07-08T12:56:00.647Z,52.69
2018-07-08T12:58:30.478Z,54.65
2018-07-08T13:01:00.394Z,55.13
2018-07-08T13:03:30.164Z,56.25
2018-07-08T13:05:59.940Z,54.83
2018-07-08T13:08:29.695Z,56.70
2018-07-08T13:10:59.538Z,54.91
2018-07-08T13:13:29.221Z,54.30
2018-07-08T13:15:59.051Z,52.33
2018-07-08T13:18:29.006Z,52.29
2018-07-08T13:20:58.796Z,51.68
2018-07-08T13:23:28.630Z,51.37
2018-07-08T13:25:58.391Z,51.05
2018-07-08T13:28:28.439Z,50.50
2018-07-08T13:30:58.365Z,51.01
2018-07-08T13:33:28.220Z,49.92
2018-07-08T13:35:58.205Z,50.23
2018-07-08T13:38:28.240Z,48.39
2018-07-08T13:40:57.976Z,46.78
2018-07-08T13:43:27.735Z,46.16
2018-07-08T13:45:57.554Z,45.60
2018-07-08T13:48:27.326Z,43.12
2018-07-08T13:50:57.096Z,42.85
2018-07-08T13:53:26.783Z,43.65
2018-07-08T13:55:56.770Z,41.51
2018-07-08T13:58:26.709Z,41.67
2018-07-08T14:00:56.592Z,40.53
2018-07-08T14:03:26.397Z,39.64
2018-07-08T14:05:56.336Z,40.67
2018-07-08T14:08:26.255Z,39.19
2018-07-08T14:10:56.127Z,44.28
2018-07-08T14:13:26.101Z,44.77
2018-07-08T14:15:55.983Z,45.71
2018-07-08T14:18:26.613Z,46.10
2018-07-08T14:20:56.446Z,46.07
2018-07-08T14:23:26.141Z,47.25
2018-07-08T14:25:56.061Z,48.27
2018-07-08T14:28:25.918Z,48.01
2018-07-08T14:30:56.091Z,48.60
2018-07-08T14:33:26.044Z,50.41
2018-07-08T14:35:56.008Z,51.45
2018-07-08T14:38:25.895Z,56.08
2018-07-08T14:40:55.586Z,56.66
2018-07-08T14:43:25.301Z,56.17
2018-07-08T14:45:55.204Z,56.68
2018-07-08T14:48:25.021Z,56.91
2018-07-08T14:50:54.842Z,56.56
2018-07-08T14:53:24.691Z,57.79
2018-07-08T14:55:54.448Z,56.22
2018-07-08T14:58:24.319Z,54.77
2018-07-08T15:00:54.206Z,52.53
2018-07-08T15:03:23.953Z,52.94
2018-07-08T15:05:53.973Z,53.40
2018-07-08T15:08:23.726Z,53.84
2018-07-08T15:10:53.457Z,59.39
2018-07-08T15:13:23.195Z,61.07
2018-07-08T15:15:53.073Z,61.81
2018-07-08T15:18:22.918Z,60.06
2018-07-08T15:20:52.623Z,59.65
2018-07-08T15:23:22.425Z,57.92
2018-07-08T15:25:52.229Z,56.93
2018-07-08T15:28:22.116Z,58.49
2018-07-08T15:30:51.826Z,58.88
2018-07-08T15:33:21.695Z,58.50
2018-07-08T15:35:51.485Z,57.72
2018-07-08T15:38:21.089Z,59.35
2018-07-08T15:40:50.975Z,58.05
2018-07-08T15:43:20.775Z,58.93
2018-07-08T15:45:50.541Z,60.03
2018-07-08T15:48:20.327Z,60.14
2018-07-08T15:50:50.213Z,57.37
2018-07-08T15:53:20.104Z,58.42
2018-07-08T15:55:50.142Z,60.27
2018-07-08T15:58:19.915Z,57.63
2018-07-08T16:00:49.685Z,58.31
2018-07-08T16:03:19.268Z,59.38
2018-07-08T16:05:49.111Z,58.29
2018-07-08T16:08:18.773Z,56.38
2018-07-08T16:10:48.541Z,55.21
2018-07-08T16:13:18.295Z,55.15
2018-07-08T16:15:48.205Z,54.95
2018-07-08T16:18:17.960Z,54.55
2018-07-08T16:20:47.799Z,54.87
2018-07-08T16:23:17.725Z,53.27
2018-07-08T16:25:47.486Z,54.10
2018-07-08T16:28:17.359Z,54.92
2018-07-08T16:30:47.242Z,55.46
2018-07-08T16:33:17.006Z,56.67
2018-07-08T16:35:52.241Z,56.53
2018-07-08T16:38:22.386Z,57.47
2018-07-08T16:40:53.310Z,57.35
2018-07-08T16:43:23.271Z,55.76
2018-07-08T16:45:53.172Z,56.89
2018-07-08T16:48:24.298Z,57.17
2018-07-08T16:50:54.068Z,55.98
2018-07-08T16:53:24.030Z,55.01
2018-07-08T16:55:53.953Z,58.03
2018-07-08T16:58:24.495Z,57.84
2018-07-08T17:00:54.288Z,56.61
2018-07-08T17:03:24.142Z,57.82
2018-07-08T17:05:54.477Z,59.63
2018-07-08T17:08:24.719Z,60.51
2018-07-08T17:10:54.469Z,60.64
2018-07-08T17:13:24.277Z,60.67
2018-07-08T17:15:54.173Z,59.14
2018-07-08T17:18:25.030Z,59.49
2018-07-08T17:20:54.979Z,59.78
2018-07-08T17:23:24.943Z,59.08
2018-07-08T17:25:54.730Z,57.91
2018-07-08T17:28:24.657Z,57.67
2018-07-08T17:30:54.497Z,59.48
2018-07-08T17:33:24.347Z,58.25
2018-07-08T17:35:54.724Z,59.05
2018-07-08T17:38:24.632Z,57.38
2018-07-08T17:40:54.763Z,57.65
2018-07-08T17:43:24.757Z,57.54
2018-07-08T17:45:54.557Z,57.38
2018-07-08T17:48:24.428Z,57.53
2018-07-08T17:50:54.346Z,57.80
2018-07-08T17:53:24.388Z,60.57
2018-07-08T17:55:54.334Z,60.71
2018-07-08T17:58:24.225Z,62.91
2018-07-08T18:00:54.005Z,63.61
2018-07-08T18:03:23.812Z,64.87
2018-07-08T18:05:53.667Z,62.74
2018-07-08T18:08:23.662Z,61.89
2018-07-08T18:10:53.620Z,62.34
2018-07-08T18:13:23.496Z,63.65
2018-07-08T18:15:53.326Z,61.90
2018-07-08T18:18:23.109Z,61.01
2018-07-08T18:20:52.932Z,60.93
2018-07-08T18:23:22.710Z,60.99
2018-07-08T18:25:52.704Z,61.15
2018-07-08T18:28:22.442Z,62.98
2018-07-08T18:30:52.189Z,63.76
2018-07-08T18:33:21.949Z,63.35
2018-07-08T18:35:51.987Z,63.47
2018-07-08T18:38:21.987Z,64.02
2018-07-08T18:40:51.834Z,64.24
2018-07-08T18:43:23.730Z,63.99
2018-07-08T18:45:54.356Z,62.59
2018-07-08T18:48:25.576Z,60.77
2018-07-08T18:50:55.362Z,59.80
2018-07-08T18:53:25.264Z,61.10
2018-07-08T18:55:55.297Z,60.34
2018-07-08T18:58:25.322Z,61.08
2018-07-08T19:00:55.307Z,62.46
2018-07-08T19:03:25.117Z,61.43
2018-07-08T19:05:54.978Z,61.47
2018-07-08T19:08:24.843Z,60.78
2018-07-08T19:10:54.828Z,60.99
2018-07-08T19:13:24.827Z,60.16
2018-07-08T19:15:55.356Z,63.12
2018-07-08T19:18:26.768Z,61.63
2018-07-08T19:20:56.451Z,60.42
2018-07-08T19:23:26.510Z,60.21
2018-07-08T19:25:56.973Z,60.73
2018-07-08T19:28:28.519Z,60.36
2018-07-08T19:30:58.487Z,61.35
2018-07-08T19:33:28.711Z,61.33
2018-07-08T19:35:58.558Z,60.72
2018-07-08T19:38:29.414Z,60.76
2018-07-08T19:40:59.298Z,60.92
2018-07-08T19:43:29.309Z,61.12
2018-07-08T19:45:59.122Z,62.34
2018-07-08T19:48:33.970Z,62.79
2018-07-08T19:51:11.484Z,62.58
2018-07-08T19:53:42.001Z,62.14
2018-07-08T19:56:12.681Z,63.94
2018-07-08T19:58:42.483Z,65.45
2018-07-08T20:01:12.289Z,65.66
2018-07-08T20:03:43.066Z,65.06
2018-07-08T20:06:12.781Z,64.21
2018-07-08T20:08:42.731Z,63.68
2018-07-08T20:11:12.823Z,65.02
2018-07-08T20:13:42.892Z,66.33
2018-07-08T20:16:12.772Z,67.25
2018-07-08T20:18:42.762Z,69.31
2018-07-08T20:21:14.428Z,69.45
2018-07-08T20:23:44.094Z,69.97
2018-07-08T20:26:14.131Z,71.91
2018-07-08T20:28:45.188Z,71.59
2018-07-08T20:31:15.114Z,71.51
2018-07-08T20:33:45.864Z,72.59
2018-07-08T20:36:15.674Z,70.52
2018-07-08T20:38:45.695Z,69.11
2018-07-08T20:41:15.553Z,68.31
2018-07-08T20:43:45.223Z,70.05
2018-07-08T20:46:15.138Z,71.40
2018-07-08T20:48:47.219Z,71.87
2018-07-08T20:51:17.049Z,70.82
2018-07-08T20:53:46.797Z,71.27
2018-07-08T20:56:16.473Z,68.56
2018-07-08T20:58:46.551Z,67.45
2018-07-08T21:01:16.616Z,66.78
2018-07-08T21:03:46.402Z,66.11
2018-07-08T21:06:16.233Z,65.43
2018-07-08T21:08:46.418Z,68.18
2018-07-08T21:11:16.301Z,67.71
2018-07-08T21:13:46.205Z,66.88
2018-07-08T21:16:16.088Z,66.02
2018-07-08T21:18:45.895Z,65.41
2018-07-08T21:21:15.726Z,67.80
2018-07-08T21:23:45.564Z,67.92
2018-07-08T21:26:15.353Z,69.37
2018-07-08T21:28:45.157Z,69.71
2018-07-08T21:31:15.113Z,68.91
2018-07-08T21:33:45.575Z,68.63
2018-07-08T21:36:15.373Z,70.98
2018-07-08T21:38:45.263Z,70.72
2018-07-08T21:41:15.217Z,72.13
2018-07-08T21:43:45.061Z,72.49
2018-07-08T21:46:14.912Z,72.63
2018-07-08T21:48:44.803Z,69.20
2018-07-08T21:51:15.126Z,67.68
2018-07-08T21:53:44.991Z,66.67
2018-07-08T21:56:15.431Z,66.31
2018-07-08T21:58:45.628Z,67.44
2018-07-08T22:01:20.249Z,66.56
2018-07-08T22:03:50.726Z,66.17
2018-07-08T22:06:20.948Z,66.04
2018-07-08T22:08:50.750Z,67.31
2018-07-08T22:11:20.605Z,65.75
2018-07-08T22:13:50.795Z,68.03
2018-07-08T22:16:20.722Z,67.43
2018-07-08T22:18:50.528Z,67.13
2018-07-08T22:21:20.380Z,66.15
2018-07-08T22:23:50.226Z,68.65
2018-07-08T22:26:20.017Z,69.26
2018-07-08T22:28:49.870Z,69.66
2018-07-08T22:31:19.669Z,70.28
2018-07-08T22:33:49.638Z,68.32
2018-07-08T22:36:19.560Z,67.32
2018-07-08T22:38:49.499Z,66.42
2018-07-08T22:41:19.526Z,66.81
2018-07-08T22:43:49.482Z,66.77
2018-07-08T22:46:21.099Z,66.51
2018-07-08T22:48:52.107Z,66.82
2018-07-08T22:51:22.775Z,68.19
2018-07-08T22:53:52.609Z,68.79
2018-07-08T22:56:23.612Z,67.15
2018-07-08T22:58:53.426Z,66.70
2018-07-08T23:01:33.808Z,66.50
2018-07-08T23:04:03.973Z,66.28
2018-07-08T23:06:34.077Z,66.17
2018-07-08T23:09:05.195Z,66.68
2018-07-08T23:11:36.441Z,66.51
2018-07-08T23:14:06.181Z,66.94
2018-07-08T23:16:35.970Z,66.56
2018-07-08T23:19:07.229Z,66.63
2018-07-08T23:21:37.314Z,66.18
2018-07-08T23:24:06.993Z,66.15
2018-07-08T23:26:37.707Z,67.70
2018-07-08T23:29:07.741Z,66.56
2018-07-08T23:31:37.602Z,66.25
2018-07-08T23:34:07.479Z,67.53
2018-07-08T23:36:37.416Z,66.67
2018-07-08T23:39:07.571Z,66.51
2018-07-08T23:41:38.071Z,67.11
2018-07-08T23:44:07.869Z,66.59
2018-07-08T23:46:37.823Z,66.33
2018-07-08T23:49:08.124Z,66.52
2018-07-08T23:51:38.037Z,66.49
2018-07-08T23:54:07.903Z,66.72
2018-07-08T23:56:38.173Z,70.03
2018-07-08T23:59:08.567Z,70.77
